Time;durP1;ratioP1;P1;durP2;ratioP2;P2;SDS_P1;SDS_P2;PMS_P1;PMS_P2;Temp;Humidity;BMP_temperature;BMP_pressure;BME280_temperature;BME280_humidity;BME280_pressure;Samples;Min_cycle;Max_cycle;Signal;HPM_P1;HPM_P2
2024/01/29 00:00:59;;;;;;;208.57;68.73;;;;;;;;;;5090070;28;20215;-45
2024/01/29 00:03:25;;;;;;;211.68;67.40;;;;;;;;;;5083035;28;20588;-44
2024/01/29 00:05:51;;;;;;;208.13;67.47;;;;;;;;;;5088736;28;20694;-44
2024/01/29 00:08:17;;;;;;;211.45;67.60;;;;;;;;;;5086327;28;20403;-45
2024/01/29 00:10:43;;;;;;;211.02;68.63;;;;;;;;;;5085778;28;20282;-45
2024/01/29 00:13:09;;;;;;;213.98;70.35;;;;;;;;;;5084958;28;20194;-45
2024/01/29 00:15:35;;;;;;;210.77;69.47;;;;;;;;;;5088839;28;20216;-44
2024/01/29 00:18:01;;;;;;;208.40;67.00;;;;;;;;;;5083531;28;20409;-45
2024/01/29 00:20:27;;;;;;;210.10;67.65;;;;;;;;;;5088253;28;20486;-45
2024/01/29 00:22:53;;;;;;;211.45;68.55;;;;;;;;;;5090595;28;20256;-45
2024/01/29 00:25:19;;;;;;;214.75;71.30;;;;;;;;;;5085681;28;20648;-44
2024/01/29 00:27:45;;;;;;;210.10;67.38;;;;;;;;;;5086196;28;20270;-45
2024/01/29 00:30:11;;;;;;;213.63;66.60;;;;;;;;;;5086031;28;20332;-45
2024/01/29 00:32:40;;;;;;;214.23;69.88;;;;;;;;;;5087972;28;20429;-45
2024/01/29 00:35:06;;;;;;;213.25;69.53;;;;;;;;;;5085116;28;20224;-44
2024/01/29 00:37:32;;;;;;;210.27;64.97;;;;;;;;;;5089494;28;20232;-44
2024/01/29 00:39:58;;;;;;;212.90;68.83;;;;;;;;;;5085658;28;20522;-44
2024/01/29 00:42:24;;;;;;;213.13;66.37;;;;;;;;;;5086058;28;20450;-44
2024/01/29 00:44:50;;;;;;;215.17;69.97;;;;;;;;;;5085329;28;20474;-45
2024/01/29 00:47:16;;;;;;;211.23;67.87;;;;;;;;;;5087818;28;20415;-44
2024/01/29 00:49:42;;;;;;;211.32;66.68;;;;;;;;;;5085549;28;20392;-44
2024/01/29 00:52:08;;;;;;;208.83;65.67;;;;;;;;;;5085531;28;20200;-45
2024/01/29 00:54:34;;;;;;;213.87;71.17;;;;;;;;;;5088129;28;20408;-44
2024/01/29 00:57:00;;;;;;;213.43;69.50;;;;;;;;;;5090514;28;20490;-45
2024/01/29 00:59:26;;;;;;;210.57;68.83;;;;;;;;;;5086176;28;20778;-45
2024/01/29 01:01:52;;;;;;;209.85;66.18;;;;;;;;;;5086743;28;20515;-44
2024/01/29 01:04:18;;;;;;;211.57;67.60;;;;;;;;;;5085184;28;20274;-44
2024/01/29 01:06:45;;;;;;;212.02;66.30;;;;;;;;;;5085077;28;20408;-45
2024/01/29 01:09:11;;;;;;;210.80;67.32;;;;;;;;;;5085160;28;20208;-45
2024/01/29 01:11:37;;;;;;;209.02;65.80;;;;;;;;;;5087605;28;20194;-45
2024/01/29 01:14:03;;;;;;;212.23;70.53;;;;;;;;;;5089690;28;20174;-45
2024/01/29 01:16:29;;;;;;;210.87;67.60;;;;;;;;;;5082887;28;21128;-44
2024/01/29 01:18:55;;;;;;;212.00;68.00;;;;;;;;;;5083620;28;20894;-44
2024/01/29 01:21:21;;;;;;;210.30;67.37;;;;;;;;;;5084842;28;20432;-44
2024/01/29 01:23:47;;;;;;;207.07;66.17;;;;;;;;;;5084602;28;20423;-45
2024/01/29 01:26:13;;;;;;;212.33;67.87;;;;;;;;;;5084730;28;20446;-45
2024/01/29 01:28:39;;;;;;;213.93;69.57;;;;;;;;;;5087400;28;20417;-45
2024/01/29 01:31:05;;;;;;;210.73;67.30;;;;;;;;;;5083822;28;20260;-44
2024/01/29 01:33:31;;;;;;;215.40;74.63;;;;;;;;;;5087844;28;20428;-45
2024/01/29 01:35:57;;;;;;;211.52;66.40;;;;;;;;;;5089381;28;20754;-45
2024/01/29 01:38:23;;;;;;;208.63;65.97;;;;;;;;;;5084993;28;20241;-44
2024/01/29 01:40:49;;;;;;;206.90;64.97;;;;;;;;;;5084480;28;20435;-44
2024/01/29 01:43:17;;;;;;;208.73;66.17;;;;;;;;;;5085619;28;20415;-44
2024/01/29 01:45:43;;;;;;;207.85;65.68;;;;;;;;;;5080684;28;20767;-45
2024/01/29 01:48:09;;;;;;;208.57;66.97;;;;;;;;;;5084360;28;20166;-45
2024/01/29 01:50:35;;;;;;;210.90;65.93;;;;;;;;;;5086977;28;20554;-45
2024/01/29 01:53:01;;;;;;;210.07;65.05;;;;;;;;;;5091406;28;20645;-44
2024/01/29 01:55:29;;;;;;;208.63;66.53;;;;;;;;;;5078933;28;20201;-45
2024/01/29 01:58:06;;;;;;;209.27;66.28;;;;;;;;;;5086437;28;20171;-44
2024/01/29 02:00:33;;;;;;;211.40;68.57;;;;;;;;;;5080846;28;20535;-46
2024/01/29 02:02:59;;;;;;;207.23;66.30;;;;;;;;;;5085563;28;20189;-45
2024/01/29 02:05:25;;;;;;;211.07;69.17;;;;;;;;;;5083310;28;20169;-46
2024/01/29 02:07:51;;;;;;;211.70;67.23;;;;;;;;;;5082257;28;20462;-45
2024/01/29 02:10:17;;;;;;;212.87;67.00;;;;;;;;;;5091302;28;20452;-45
2024/01/29 02:12:43;;;;;;;210.65;65.75;;;;;;;;;;5083712;28;20797;-46
2024/01/29 02:15:09;;;;;;;209.83;65.63;;;;;;;;;;5091030;28;20200;-45
2024/01/29 02:17:35;;;;;;;211.75;65.25;;;;;;;;;;5088393;28;20402;-46
2024/01/29 02:20:01;;;;;;;213.97;69.53;;;;;;;;;;5086159;28;20182;-46
2024/01/29 02:22:27;;;;;;;213.38;67.90;;;;;;;;;;5086256;28;20473;-44
2024/01/29 02:24:53;;;;;;;212.20;66.50;;;;;;;;;;5085847;28;20171;-45
2024/01/29 02:27:19;;;;;;;214.37;65.57;;;;;;;;;;5085656;28;20396;-44
2024/01/29 02:29:45;;;;;;;211.07;65.77;;;;;;;;;;5087024;28;20449;-45
2024/01/29 02:32:11;;;;;;;210.83;66.70;;;;;;;;;;5090045;28;20452;-45
2024/01/29 02:34:37;;;;;;;212.67;67.60;;;;;;;;;;5087471;28;20496;-46
2024/01/29 02:37:03;;;;;;;211.57;65.60;;;;;;;;;;5085295;28;20411;-45
2024/01/29 02:39:29;;;;;;;213.90;67.82;;;;;;;;;;5086253;28;20401;-44
2024/01/29 02:41:55;;;;;;;213.37;67.87;;;;;;;;;;5085201;28;20200;-44
2024/01/29 02:44:21;;;;;;;211.10;65.10;;;;;;;;;;5085107;28;20404;-44
2024/01/29 02:46:47;;;;;;;211.63;65.53;;;;;;;;;;5087191;28;20423;-45
2024/01/29 02:49:13;;;;;;;213.13;66.87;;;;;;;;;;5088151;28;20480;-45
2024/01/29 02:51:39;;;;;;;211.98;65.30;;;;;;;;;;5088213;28;20838;-45
2024/01/29 02:54:05;;;;;;;215.57;69.60;;;;;;;;;;5085070;28;20178;-47
2024/01/29 02:56:31;;;;;;;213.15;65.82;;;;;;;;;;5086658;28;20498;-46
2024/01/29 02:58:57;;;;;;;212.63;67.37;;;;;;;;;;5085432;28;20213;-45
2024/01/29 03:01:23;;;;;;;212.50;67.03;;;;;;;;;;5085487;28;20443;-46
2024/01/29 03:03:49;;;;;;;211.63;66.32;;;;;;;;;;5086640;28;20473;-46
2024/01/29 03:06:15;;;;;;;210.63;64.80;;;;;;;;;;5090597;28;20177;-45
2024/01/29 03:08:42;;;;;;;211.17;66.53;;;;;;;;;;5083626;28;20796;-45
2024/01/29 03:11:08;;;;;;;213.35;67.38;;;;;;;;;;5090136;28;20536;-44
2024/01/29 03:13:35;;;;;;;211.80;68.87;;;;;;;;;;5087163;28;20177;-47
2024/01/29 03:16:01;;;;;;;211.98;66.05;;;;;;;;;;5085141;28;20896;-44
2024/01/29 03:18:27;;;;;;;212.07;66.47;;;;;;;;;;5085658;28;20177;-45
2024/01/29 03:20:54;;;;;;;213.67;66.60;;;;;;;;;;5086297;28;20511;-45
2024/01/29 03:23:20;;;;;;;213.98;68.95;;;;;;;;;;5085182;28;20771;-46
2024/01/29 03:25:46;;;;;;;215.07;70.53;;;;;;;;;;5083788;28;20178;-45
2024/01/29 03:28:12;;;;;;;211.10;68.57;;;;;;;;;;5090058;28;20415;-46
2024/01/29 03:30:38;;;;;;;213.47;67.60;;;;;;;;;;5087069;28;20457;-46
2024/01/29 03:33:05;;;;;;;214.07;66.47;;;;;;;;;;5084608;28;20408;-45
2024/01/29 03:35:31;;;;;;;213.80;65.90;;;;;;;;;;5085835;28;20436;-44
2024/01/29 03:37:57;;;;;;;212.70;66.00;;;;;;;;;;5085213;28;20181;-45
2024/01/29 03:40:23;;;;;;;209.57;64.20;;;;;;;;;;5085193;28;20414;-44
2024/01/29 03:42:49;;;;;;;213.80;65.77;;;;;;;;;;5086269;28;20927;-45
2024/01/29 03:45:15;;;;;;;211.87;64.73;;;;;;;;;;5089588;28;20802;-45
2024/01/29 03:47:41;;;;;;;212.87;64.40;;;;;;;;;;5087912;28;20480;-44
2024/01/29 03:50:07;;;;;;;211.03;65.30;;;;;;;;;;5084352;28;20983;-46
2024/01/29 03:52:33;;;;;;;214.43;67.32;;;;;;;;;;5086793;28;20427;-45
2024/01/29 03:54:59;;;;;;;214.05;68.78;;;;;;;;;;5084920;28;20574;-45
2024/01/29 03:57:25;;;;;;;210.20;64.43;;;;;;;;;;5084706;28;20165;-45
2024/01/29 03:59:56;;;;;;;211.10;65.87;;;;;;;;;;5085670;28;20420;-45
2024/01/29 04:02:23;;;;;;;215.73;69.95;;;;;;;;;;5088342;28;20931;-45
2024/01/29 04:04:51;;;;;;;213.65;65.82;;;;;;;;;;5082147;28;20177;-45
2024/01/29 04:07:17;;;;;;;215.88;67.15;;;;;;;;;;5089441;28;20170;-45
2024/01/29 04:09:42;;;;;;;215.00;66.80;;;;;;;;;;5091761;28;20517;-44
2024/01/29 04:12:09;;;;;;;212.27;65.37;;;;;;;;;;5088369;28;20466;-45
2024/01/29 04:14:37;;;;;;;213.40;66.28;;;;;;;;;;5087749;28;20478;-47
2024/01/29 04:17:06;;;;;;;218.02;67.25;;;;;;;;;;5088622;28;20166;-44
2024/01/29 04:19:33;;;;;;;217.57;68.65;;;;;;;;;;5087994;28;20724;-45
2024/01/29 04:21:59;;;;;;;217.20;66.22;;;;;;;;;;5087956;28;20225;-45
2024/01/29 04:24:25;;;;;;;215.18;65.30;;;;;;;;;;5092006;28;20188;-43
2024/01/29 04:26:51;;;;;;;218.00;66.60;;;;;;;;;;5090478;28;20181;-47
2024/01/29 04:29:18;;;;;;;216.80;66.43;;;;;;;;;;5073263;28;20637;-44
2024/01/29 04:31:45;;;;;;;218.73;66.47;;;;;;;;;;5090857;28;20209;-45
2024/01/29 04:34:11;;;;;;;217.63;67.90;;;;;;;;;;5082408;28;20223;-46
2024/01/29 04:36:37;;;;;;;218.27;67.60;;;;;;;;;;5090642;28;20268;-46
2024/01/29 04:39:03;;;;;;;217.47;65.77;;;;;;;;;;5093874;28;20411;-47
2024/01/29 04:41:29;;;;;;;217.68;66.93;;;;;;;;;;5088009;28;20429;-46
2024/01/29 04:43:55;;;;;;;218.73;67.30;;;;;;;;;;5088167;28;20255;-44
2024/01/29 04:46:21;;;;;;;217.17;65.57;;;;;;;;;;5091312;28;20419;-45
2024/01/29 04:48:47;;;;;;;219.30;67.33;;;;;;;;;;5088737;28;20460;-45
2024/01/29 04:51:13;;;;;;;217.60;66.78;;;;;;;;;;5092514;28;20493;-47
2024/01/29 04:53:40;;;;;;;217.00;65.37;;;;;;;;;;5090177;28;20181;-44
2024/01/29 04:56:06;;;;;;;216.07;66.13;;;;;;;;;;5087273;28;20465;-45
2024/01/29 04:58:32;;;;;;;217.48;65.72;;;;;;;;;;5087488;28;20230;-46
2024/01/29 05:00:59;;;;;;;215.17;66.63;;;;;;;;;;5087936;28;20739;-45
2024/01/29 05:03:25;;;;;;;220.55;69.05;;;;;;;;;;5086901;28;20894;-45
2024/01/29 05:05:51;;;;;;;215.50;65.10;;;;;;;;;;5087736;28;20189;-45
2024/01/29 05:08:18;;;;;;;216.97;65.77;;;;;;;;;;5091542;28;20412;-45
2024/01/29 05:10:44;;;;;;;214.80;64.45;;;;;;;;;;5090000;28;20935;-47
2024/01/29 05:13:10;;;;;;;215.63;65.97;;;;;;;;;;5086666;28;20209;-46
2024/01/29 05:15:36;;;;;;;217.37;67.50;;;;;;;;;;5087096;28;20414;-47
2024/01/29 05:18:02;;;;;;;219.65;67.40;;;;;;;;;;5086450;28;20407;-45
2024/01/29 05:20:29;;;;;;;215.93;64.43;;;;;;;;;;5086975;28;20196;-44
2024/01/29 05:22:55;;;;;;;214.18;64.55;;;;;;;;;;5094887;28;20466;-44
2024/01/29 05:25:21;;;;;;;213.23;64.28;;;;;;;;;;5098466;28;20174;-46
2024/01/29 05:27:47;;;;;;;215.60;66.78;;;;;;;;;;5090648;28;20177;-46
2024/01/29 05:30:15;;;;;;;217.38;66.68;;;;;;;;;;5084360;28;20250;-46
2024/01/29 05:32:41;;;;;;;217.90;67.68;;;;;;;;;;5088991;28;20193;-46
2024/01/29 05:35:07;;;;;;;215.65;65.95;;;;;;;;;;5082425;28;20629;-45
2024/01/29 05:37:34;;;;;;;214.95;66.35;;;;;;;;;;5086223;28;20664;-45
2024/01/29 05:40:00;;;;;;;215.93;65.22;;;;;;;;;;5086105;28;20173;-45
2024/01/29 05:42:26;;;;;;;216.95;67.07;;;;;;;;;;5090323;28;20189;-46
2024/01/29 05:44:52;;;;;;;215.02;66.45;;;;;;;;;;5082803;28;20180;-44
2024/01/29 05:47:18;;;;;;;214.67;64.17;;;;;;;;;;5090864;28;20540;-46
2024/01/29 05:49:44;;;;;;;215.38;64.95;;;;;;;;;;5089123;28;20415;-45
2024/01/29 05:52:10;;;;;;;216.55;66.72;;;;;;;;;;5085617;28;20610;-44
2024/01/29 05:54:36;;;;;;;216.93;66.80;;;;;;;;;;5086082;28;20185;-44
2024/01/29 05:57:02;;;;;;;215.87;65.43;;;;;;;;;;5086498;28;20396;-46
2024/01/29 05:59:28;;;;;;;215.10;65.28;;;;;;;;;;5086116;28;20403;-45
2024/01/29 06:01:54;;;;;;;216.70;66.47;;;;;;;;;;5086472;28;20677;-45
2024/01/29 06:04:20;;;;;;;216.87;67.63;;;;;;;;;;5090861;28;20412;-46
2024/01/29 06:06:46;;;;;;;214.02;67.15;;;;;;;;;;5090365;28;20415;-46
2024/01/29 06:09:13;;;;;;;214.50;67.07;;;;;;;;;;5086865;28;20197;-45
2024/01/29 06:11:39;;;;;;;214.80;64.35;;;;;;;;;;5086700;28;21056;-44
2024/01/29 06:14:05;;;;;;;216.17;67.90;;;;;;;;;;5087979;28;20466;-46
2024/01/29 06:16:32;;;;;;;219.87;71.13;;;;;;;;;;5086441;28;20449;-46
2024/01/29 06:18:58;;;;;;;214.55;65.65;;;;;;;;;;5080052;28;20408;-45
2024/01/29 06:21:24;;;;;;;214.30;66.00;;;;;;;;;;5090552;28;20223;-46
2024/01/29 06:23:50;;;;;;;215.40;66.10;;;;;;;;;;5089940;28;20451;-45
2024/01/29 06:26:16;;;;;;;215.37;66.07;;;;;;;;;;5086016;28;20271;-44
2024/01/29 06:28:42;;;;;;;214.67;65.60;;;;;;;;;;5085971;28;20795;-44
2024/01/29 06:31:08;;;;;;;215.45;65.70;;;;;;;;;;5085598;28;20542;-44
2024/01/29 06:33:35;;;;;;;217.87;68.83;;;;;;;;;;5075801;28;20646;-46
2024/01/29 06:36:02;;;;;;;215.07;65.13;;;;;;;;;;5089905;28;20487;-46
2024/01/29 06:38:28;;;;;;;211.73;62.13;;;;;;;;;;5086918;28;20173;-46
2024/01/29 06:40:54;;;;;;;214.35;67.22;;;;;;;;;;5088288;28;20283;-46
2024/01/29 06:43:20;;;;;;;217.70;68.03;;;;;;;;;;5086872;28;20212;-46
2024/01/29 06:45:46;;;;;;;218.17;67.10;;;;;;;;;;5086360;28;20221;-45
2024/01/29 06:48:12;;;;;;;219.07;66.80;;;;;;;;;;5086012;28;20404;-45
2024/01/29 06:50:40;;;;;;;214.67;64.60;;;;;;;;;;5087933;28;20450;-44
2024/01/29 06:53:06;;;;;;;215.77;65.65;;;;;;;;;;5084228;28;20508;-45
2024/01/29 06:55:32;;;;;;;215.37;65.03;;;;;;;;;;5089021;28;20201;-45
2024/01/29 06:57:58;;;;;;;218.15;66.38;;;;;;;;;;5090808;28;20415;-45
2024/01/29 07:00:24;;;;;;;215.55;66.15;;;;;;;;;;5086341;28;20194;-44
2024/01/29 07:02:50;;;;;;;213.27;64.17;;;;;;;;;;5084774;28;20671;-45
2024/01/29 07:05:16;;;;;;;214.73;64.68;;;;;;;;;;5085880;28;20416;-44
2024/01/29 07:07:42;;;;;;;216.40;66.18;;;;;;;;;;5085107;28;20544;-46
2024/01/29 07:10:08;;;;;;;216.77;66.22;;;;;;;;;;5085040;28;20265;-46
2024/01/29 07:12:34;;;;;;;216.95;68.15;;;;;;;;;;5087890;28;20221;-45
2024/01/29 07:15:00;;;;;;;215.27;65.10;;;;;;;;;;5089605;28;20201;-45
2024/01/29 07:17:26;;;;;;;215.23;65.57;;;;;;;;;;5086102;28;20403;-45
2024/01/29 07:19:52;;;;;;;215.38;66.05;;;;;;;;;;5085678;28;20494;-46
2024/01/29 07:22:19;;;;;;;215.70;66.20;;;;;;;;;;5084645;28;20235;-45
2024/01/29 07:24:45;;;;;;;216.70;65.25;;;;;;;;;;5084617;28;20841;-45
2024/01/29 07:27:12;;;;;;;216.20;65.63;;;;;;;;;;5084838;28;20169;-45
2024/01/29 07:29:37;;;;;;;216.48;65.47;;;;;;;;;;5087633;28;20182;-45
2024/01/29 07:32:04;;;;;;;215.47;64.50;;;;;;;;;;5089220;28;20225;-45
2024/01/29 07:34:30;;;;;;;215.07;65.68;;;;;;;;;;5081600;28;20902;-45
2024/01/29 07:36:56;;;;;;;215.23;63.87;;;;;;;;;;5090005;28;20183;-44
2024/01/29 07:39:22;;;;;;;215.70;64.00;;;;;;;;;;5081593;28;20412;-44
2024/01/29 07:41:48;;;;;;;216.43;65.27;;;;;;;;;;5086325;28;20205;-45
2024/01/29 07:44:14;;;;;;;216.30;64.88;;;;;;;;;;5088671;28;20766;-45
2024/01/29 07:46:39;;;;;;;215.97;66.10;;;;;;;;;;5091744;28;20181;-44
2024/01/29 07:49:06;;;;;;;216.07;64.30;;;;;;;;;;5087373;28;20443;-44
2024/01/29 07:51:32;;;;;;;219.38;67.40;;;;;;;;;;5097041;28;20541;-45
2024/01/29 07:53:59;;;;;;;214.50;65.73;;;;;;;;;;5090166;28;20271;-45
2024/01/29 07:56:25;;;;;;;217.15;66.50;;;;;;;;;;5092457;28;20403;-45
2024/01/29 07:58:51;;;;;;;214.23;64.80;;;;;;;;;;5086749;28;20606;-46
2024/01/29 08:01:16;;;;;;;217.23;66.70;;;;;;;;;;5086740;28;20859;-45
2024/01/29 08:03:43;;;;;;;217.17;67.20;;;;;;;;;;5086236;28;20445;-45
2024/01/29 08:06:09;;;;;;;216.25;65.45;;;;;;;;;;5086434;28;20465;-44
2024/01/29 08:08:36;;;;;;;214.95;64.18;;;;;;;;;;5089102;28;20186;-45
2024/01/29 08:11:03;;;;;;;218.18;67.80;;;;;;;;;;5078841;28;20198;-45
2024/01/29 08:13:29;;;;;;;221.10;72.43;;;;;;;;;;5084349;28;20189;-45
2024/01/29 08:15:55;;;;;;;216.98;67.13;;;;;;;;;;5094643;28;20200;-44
2024/01/29 08:18:21;;;;;;;217.02;66.75;;;;;;;;;;5080410;28;20176;-45
2024/01/29 08:20:47;;;;;;;220.27;67.10;;;;;;;;;;5086180;28;20237;-45
2024/01/29 08:23:13;;;;;;;221.40;68.33;;;;;;;;;;5086208;28;20174;-45
2024/01/29 08:25:39;;;;;;;218.37;66.10;;;;;;;;;;5088068;28;20424;-45
2024/01/29 08:28:06;;;;;;;218.67;67.47;;;;;;;;;;5090852;28;20427;-45
2024/01/29 08:30:32;;;;;;;219.95;68.50;;;;;;;;;;5082268;28;20463;-44
2024/01/29 08:32:58;;;;;;;220.93;67.57;;;;;;;;;;5090902;28;20218;-45
2024/01/29 08:35:24;;;;;;;219.03;65.70;;;;;;;;;;5086196;28;20170;-44
2024/01/29 08:37:50;;;;;;;219.23;67.63;;;;;;;;;;5085792;28;20420;-45
2024/01/29 08:40:16;;;;;;;219.68;67.30;;;;;;;;;;5085789;28;20907;-45
2024/01/29 08:42:42;;;;;;;220.90;66.97;;;;;;;;;;5088163;28;20201;-45
2024/01/29 08:45:08;;;;;;;223.27;70.70;;;;;;;;;;5083902;28;20416;-45
2024/01/29 08:47:34;;;;;;;222.80;72.32;;;;;;;;;;5088596;28;20477;-44
2024/01/29 08:50:00;;;;;;;221.13;68.27;;;;;;;;;;5090390;28;20657;-45
2024/01/29 08:52:26;;;;;;;222.50;70.20;;;;;;;;;;5086361;28;20940;-45
2024/01/29 08:54:52;;;;;;;221.67;67.90;;;;;;;;;;5084991;28;20417;-45
2024/01/29 08:57:18;;;;;;;224.90;70.70;;;;;;;;;;5085767;28;20800;-45
2024/01/29 08:59:44;;;;;;;225.30;70.57;;;;;;;;;;5077386;28;20809;-44
2024/01/29 09:02:10;;;;;;;227.57;73.60;;;;;;;;;;5074309;28;21117;-45
2024/01/29 09:04:36;;;;;;;228.15;72.90;;;;;;;;;;5087828;28;20401;-45
2024/01/29 09:07:02;;;;;;;228.50;75.27;;;;;;;;;;5085027;28;20224;-45
2024/01/29 09:09:28;;;;;;;227.07;74.38;;;;;;;;;;5084985;28;20413;-45
2024/01/29 09:11:54;;;;;;;227.03;72.40;;;;;;;;;;5093494;28;20223;-45
2024/01/29 09:14:21;;;;;;;225.97;70.40;;;;;;;;;;5084809;28;20406;-45
2024/01/29 09:16:47;;;;;;;227.45;73.03;;;;;;;;;;5085055;28;20471;-45
2024/01/29 09:19:14;;;;;;;230.68;75.50;;;;;;;;;;5084082;28;20166;-45
2024/01/29 09:21:41;;;;;;;231.70;76.53;;;;;;;;;;5087347;28;20591;-45
2024/01/29 09:24:07;;;;;;;230.77;74.65;;;;;;;;;;5078265;28;20257;-45
2024/01/29 09:26:33;;;;;;;227.67;74.20;;;;;;;;;;5068358;28;20277;-45
2024/01/29 09:28:59;;;;;;;231.97;77.33;;;;;;;;;;5084101;28;20425;-45
2024/01/29 09:31:25;;;;;;;227.83;73.00;;;;;;;;;;5081108;28;20455;-45
2024/01/29 09:33:52;;;;;;;231.53;76.13;;;;;;;;;;5083455;28;20465;-46
2024/01/29 09:36:18;;;;;;;236.07;81.93;;;;;;;;;;5080996;28;20411;-45
2024/01/29 09:38:44;;;;;;;233.57;77.80;;;;;;;;;;5085460;28;20170;-45
2024/01/29 09:41:10;;;;;;;232.47;78.93;;;;;;;;;;5082385;28;20432;-46
2024/01/29 09:43:36;;;;;;;234.33;81.17;;;;;;;;;;5086278;28;20793;-45
2024/01/29 09:46:04;;;;;;;232.90;78.40;;;;;;;;;;5089151;28;20503;-46
2024/01/29 09:48:33;;;;;;;232.20;77.75;;;;;;;;;;5085722;28;20670;-45
2024/01/29 09:51:00;;;;;;;234.88;81.75;;;;;;;;;;5084323;28;20299;-45
2024/01/29 09:53:27;;;;;;;238.40;87.80;;;;;;;;;;5084085;28;20181;-46
2024/01/29 09:55:53;;;;;;;236.67;87.43;;;;;;;;;;5084422;28;20768;-45
2024/01/29 09:58:19;;;;;;;232.15;81.35;;;;;;;;;;5084132;28;20399;-45
2024/01/29 10:00:45;;;;;;;233.23;80.07;;;;;;;;;;5085360;28;20588;-45
2024/01/29 10:03:20;;;;;;;232.23;80.20;;;;;;;;;;5088957;28;20482;-46
2024/01/29 10:05:46;;;;;;;232.27;79.00;;;;;;;;;;5083228;28;20407;-45
2024/01/29 10:08:12;;;;;;;229.97;80.60;;;;;;;;;;5088833;28;20426;-45
2024/01/29 10:10:38;;;;;;;233.83;83.33;;;;;;;;;;5086195;28;20545;-45
2024/01/29 10:13:10;;;;;;;230.77;77.13;;;;;;;;;;5078798;28;20442;-45
2024/01/29 10:15:36;;;;;;;234.33;85.30;;;;;;;;;;5091957;28;20482;-46
2024/01/29 10:18:02;;;;;;;233.10;81.47;;;;;;;;;;5090954;28;20453;-46
2024/01/29 10:20:28;;;;;;;235.90;86.77;;;;;;;;;;5090550;28;20188;-46
2024/01/29 10:23:02;;;;;;;229.93;81.07;;;;;;;;;;5092294;28;20898;-46
2024/01/29 10:25:29;;;;;;;236.10;86.03;;;;;;;;;;5074247;28;20424;-45
2024/01/29 10:28:04;;;;;;;233.43;87.07;;;;;;;;;;5083730;28;20438;-45
2024/01/29 10:30:30;;;;;;;229.40;82.25;;;;;;;;;;5077749;28;20453;-45
2024/01/29 10:32:56;;;;;;;234.00;86.43;;;;;;;;;;5083731;28;20184;-45
2024/01/29 10:35:22;;;;;;;236.80;87.97;;;;;;;;;;5083476;28;20432;-45
2024/01/29 10:37:48;;;;;;;238.97;90.87;;;;;;;;;;5085275;28;20509;-46
2024/01/29 10:40:15;;;;;;;233.90;84.97;;;;;;;;;;5083776;28;20426;-46
2024/01/29 10:42:42;;;;;;;235.45;88.07;;;;;;;;;;5085852;28;20467;-46
2024/01/29 10:45:10;;;;;;;232.70;85.03;;;;;;;;;;5078966;28;20177;-45
2024/01/29 10:47:40;;;;;;;237.27;88.93;;;;;;;;;;5084053;28;20419;-46
2024/01/29 10:50:06;;;;;;;239.67;91.53;;;;;;;;;;5091850;28;20411;-47
2024/01/29 10:52:33;;;;;;;235.23;88.83;;;;;;;;;;5091739;28;20425;-46
2024/01/29 10:54:59;;;;;;;237.73;89.53;;;;;;;;;;5087853;28;20907;-45
2024/01/29 10:57:25;;;;;;;237.37;89.87;;;;;;;;;;5072367;28;20415;-47
2024/01/29 10:59:52;;;;;;;237.37;86.87;;;;;;;;;;5091873;28;20763;-46
2024/01/29 11:02:18;;;;;;;236.93;89.83;;;;;;;;;;5091744;28;20443;-46
2024/01/29 11:04:44;;;;;;;234.50;84.37;;;;;;;;;;5091361;28;20795;-46
2024/01/29 11:07:16;;;;;;;237.97;92.30;;;;;;;;;;5088442;28;20751;-46
2024/01/29 11:09:48;;;;;;;235.90;88.17;;;;;;;;;;5091746;28;20427;-47
2024/01/29 11:12:15;;;;;;;234.80;89.67;;;;;;;;;;5091682;28;20493;-47
2024/01/29 11:14:47;;;;;;;232.43;86.17;;;;;;;;;;5091410;28;20858;-48
2024/01/29 11:17:13;;;;;;;237.43;90.03;;;;;;;;;;5093245;28;20921;-46
2024/01/29 11:19:39;;;;;;;238.37;91.13;;;;;;;;;;5095931;28;20435;-46
2024/01/29 11:22:05;;;;;;;240.90;97.17;;;;;;;;;;5095741;28;20442;-47
2024/01/29 11:24:33;;;;;;;240.40;97.50;;;;;;;;;;5095541;28;20419;-47
2024/01/29 11:27:09;;;;;;;238.00;97.47;;;;;;;;;;5095747;28;20452;-46
2024/01/29 11:29:37;;;;;;;237.23;96.50;;;;;;;;;;5095739;28;20493;-47
2024/01/29 11:32:04;;;;;;;238.43;97.00;;;;;;;;;;5095744;28;21035;-47
2024/01/29 11:34:30;;;;;;;238.87;98.27;;;;;;;;;;5082866;28;20405;-47
2024/01/29 11:36:57;;;;;;;235.80;94.37;;;;;;;;;;5061665;28;20415;-47
2024/01/29 11:39:24;;;;;;;239.57;101.73;;;;;;;;;;5095740;28;20440;-46
2024/01/29 11:41:51;;;;;;;236.00;92.83;;;;;;;;;;5095397;28;20568;-46
2024/01/29 11:44:23;;;;;;;240.63;102.33;;;;;;;;;;5072299;28;20422;-47
2024/01/29 11:46:50;;;;;;;237.33;94.40;;;;;;;;;;5094755;28;20415;-47
2024/01/29 11:49:44;;;;;;;239.23;99.87;;;;;;;;;;5076332;28;20427;-46
2024/01/29 11:52:10;;;;;;;235.33;93.37;;;;;;;;;;5086798;28;20526;-45
2024/01/29 11:54:36;;;;;;;237.47;92.27;;;;;;;;;;5094823;28;20412;-47
2024/01/29 11:57:02;;;;;;;242.43;102.23;;;;;;;;;;5094859;28;20543;-46
2024/01/29 11:59:28;;;;;;;238.23;96.93;;;;;;;;;;5094920;28;20471;-45
2024/01/29 12:01:54;;;;;;;236.53;93.20;;;;;;;;;;5094950;28;20424;-46
2024/01/29 12:04:20;;;;;;;210.93;88.33;;;;;;;;;;5091937;28;20476;-46
2024/01/29 12:06:46;;;;;;;194.03;90.40;;;;;;;;;;5081756;28;20412;-47
2024/01/29 12:09:12;;;;;;;208.63;87.10;;;;;;;;;;5087912;28;20494;-46
2024/01/29 12:11:38;;;;;;;207.77;88.20;;;;;;;;;;5093615;28;20474;-46
2024/01/29 12:14:04;;;;;;;228.80;101.23;;;;;;;;;;5094477;28;20411;-46
2024/01/29 12:16:30;;;;;;;229.70;92.17;;;;;;;;;;5087679;28;20407;-46
2024/01/29 12:18:59;;;;;;;236.17;93.17;;;;;;;;;;5080472;28;20408;-46
2024/01/29 12:21:25;;;;;;;239.52;91.78;;;;;;;;;;5094821;28;20411;-46
2024/01/29 12:23:51;;;;;;;239.97;96.67;;;;;;;;;;5094486;28;20359;-47
2024/01/29 12:26:25;;;;;;;239.17;94.70;;;;;;;;;;5076811;28;20510;-47
2024/01/29 12:28:51;;;;;;;234.90;85.83;;;;;;;;;;5089553;28;20408;-45
2024/01/29 12:31:19;;;;;;;235.60;88.80;;;;;;;;;;5094323;28;20812;-46
2024/01/29 12:33:47;;;;;;;237.93;89.50;;;;;;;;;;5094268;28;20732;-46
2024/01/29 12:36:17;;;;;;;240.15;94.85;;;;;;;;;;5094348;28;20502;-46
2024/01/29 12:38:58;;;;;;;241.15;94.20;;;;;;;;;;5094088;28;20566;-46
2024/01/29 12:41:24;;;;;;;238.73;92.53;;;;;;;;;;5074594;28;20619;-46
2024/01/29 12:43:51;;;;;;;234.03;86.83;;;;;;;;;;5081981;28;20167;-46
2024/01/29 12:46:17;;;;;;;239.47;96.63;;;;;;;;;;5085843;28;20396;-45
2024/01/29 12:48:43;;;;;;;235.63;86.50;;;;;;;;;;5087325;28;20491;-47
2024/01/29 12:51:11;;;;;;;241.97;96.17;;;;;;;;;;5090310;28;20463;-46
2024/01/29 12:53:36;;;;;;;235.70;88.80;;;;;;;;;;5084985;28;20416;-46
2024/01/29 12:56:03;;;;;;;238.73;92.73;;;;;;;;;;5093957;28;20462;-46
2024/01/29 12:58:29;;;;;;;235.20;89.10;;;;;;;;;;5094120;28;20411;-46
2024/01/29 13:00:55;;;;;;;234.63;86.63;;;;;;;;;;5093866;28;20468;-46
2024/01/29 13:03:21;;;;;;;240.47;94.47;;;;;;;;;;5093758;28;20408;-46
2024/01/29 13:05:47;;;;;;;239.13;93.17;;;;;;;;;;5089844;28;20767;-46
2024/01/29 13:08:13;;;;;;;239.77;91.93;;;;;;;;;;5090559;28;20461;-46
2024/01/29 13:10:39;;;;;;;241.83;94.47;;;;;;;;;;5093593;28;20201;-46
2024/01/29 13:13:09;;;;;;;240.88;92.03;;;;;;;;;;5093746;28;20408;-46
2024/01/29 13:15:35;;;;;;;241.67;94.03;;;;;;;;;;5093474;28;20660;-46
2024/01/29 13:18:02;;;;;;;241.83;92.13;;;;;;;;;;5093509;28;20899;-46
2024/01/29 13:20:28;;;;;;;243.57;92.50;;;;;;;;;;5091304;28;20811;-46
2024/01/29 13:22:54;;;;;;;240.37;87.50;;;;;;;;;;5084740;28;20483;-45
2024/01/29 13:25:20;;;;;;;242.17;89.97;;;;;;;;;;5089475;28;20502;-45
2024/01/29 13:27:46;;;;;;;241.23;93.70;;;;;;;;;;5082863;28;20415;-46
2024/01/29 13:30:12;;;;;;;238.37;86.83;;;;;;;;;;5089850;28;20468;-46
2024/01/29 13:32:41;;;;;;;238.73;89.73;;;;;;;;;;5087232;28;20521;-45
2024/01/29 13:35:08;;;;;;;239.03;90.63;;;;;;;;;;5084491;28;20435;-46
2024/01/29 13:37:34;;;;;;;233.07;82.20;;;;;;;;;;5077291;28;20488;-45
2024/01/29 13:40:00;;;;;;;238.10;87.57;;;;;;;;;;5077731;28;20181;-46
2024/01/29 13:42:26;;;;;;;240.83;93.10;;;;;;;;;;5076757;28;20484;-46
2024/01/29 13:44:52;;;;;;;237.70;90.03;;;;;;;;;;5079483;28;20838;-46
2024/01/29 13:47:18;;;;;;;239.00;89.77;;;;;;;;;;5088664;28;20411;-46
2024/01/29 13:49:44;;;;;;;236.07;84.93;;;;;;;;;;5092132;28;20414;-47
2024/01/29 13:52:10;;;;;;;239.68;88.72;;;;;;;;;;5084352;28;20470;-46
2024/01/29 13:54:36;;;;;;;237.67;87.80;;;;;;;;;;5087876;28;20535;-46
2024/01/29 13:57:02;;;;;;;237.35;86.88;;;;;;;;;;5090297;28;20434;-46
2024/01/29 13:59:29;;;;;;;237.67;86.83;;;;;;;;;;5084296;28;20593;-46